Time;durP1;ratioP1;P1;durP2;ratioP2;P2;SDS_P1;SDS_P2;PMS_P1;PMS_P2;Temp;Humidity;BMP_temperature;BMP_pressure;BME280_temperature;BME280_humidity;BME280_pressure;Samples;Min_cycle;Max_cycle;Signal;HPM_P1;HPM_P2
2022/12/11 00:01:22;;;;;;;26.17;17.73;;;23.50;91.10;;;;;;1858193;75;21126;-82
2022/12/11 00:03:52;;;;;;;24.12;16.45;;;23.50;91.00;;;;;;1870587;75;21106;-84
2022/12/11 00:06:24;;;;;;;27.25;19.35;;;23.50;90.80;;;;;;1860888;75;21140;-82
2022/12/11 00:08:55;;;;;;;25.00;18.25;;;23.50;91.00;;;;;;1858909;75;21130;-83
2022/12/11 00:11:26;;;;;;;26.15;18.82;;;23.50;91.10;;;;;;1861705;76;21125;-82
2022/12/11 00:13:57;;;;;;;23.42;17.48;;;23.50;91.10;;;;;;1860584;75;21111;-83
2022/12/11 00:16:28;;;;;;;22.13;16.50;;;23.50;91.00;;;;;;1861534;75;21164;-82
2022/12/11 00:18:58;;;;;;;22.58;16.07;;;23.50;91.00;;;;;;1851939;75;21193;-83
2022/12/11 00:21:29;;;;;;;22.55;16.60;;;23.50;91.00;;;;;;1861952;77;21217;-83
2022/12/11 00:24:00;;;;;;;24.40;16.50;;;23.50;90.90;;;;;;1857005;75;21175;-84
2022/12/11 00:26:33;;;;;;;24.60;19.30;;;23.50;90.90;;;;;;1854128;75;21063;-84
2022/12/11 00:29:04;;;;;;;26.10;18.23;;;23.50;90.80;;;;;;1860145;76;21121;-85
2022/12/11 00:31:35;;;;;;;23.62;17.67;;;23.50;90.70;;;;;;1857347;75;21114;-85
2022/12/11 00:34:08;;;;;;;26.15;16.87;;;23.50;90.80;;;;;;1857942;75;21169;-83
2022/12/11 00:36:39;;;;;;;22.42;17.05;;;23.50;90.60;;;;;;1836011;75;21130;-85
2022/12/11 00:39:13;;;;;;;20.57;16.60;;;23.50;90.70;;;;;;1862086;75;21207;-84
2022/12/11 00:41:44;;;;;;;24.98;17.17;;;23.60;90.80;;;;;;1865988;75;21205;-83
2022/12/11 00:44:15;;;;;;;20.92;16.27;;;23.60;90.80;;;;;;1867153;75;21616;-83
2022/12/11 00:46:45;;;;;;;23.65;16.85;;;23.60;91.00;;;;;;1879680;75;21149;-84
2022/12/11 00:49:16;;;;;;;23.75;18.27;;;23.70;91.10;;;;;;1866413;75;21145;-84
2022/12/11 00:51:47;;;;;;;28.12;18.42;;;23.70;91.20;;;;;;1859226;77;21075;-83
2022/12/11 00:54:17;;;;;;;25.10;18.60;;;23.80;91.20;;;;;;1785795;78;21838;-84
2022/12/11 00:56:49;;;;;;;25.95;18.12;;;23.90;91.10;;;;;;1791317;79;21754;-83
2022/12/11 00:59:20;;;;;;;21.97;17.37;;;24.00;90.80;;;;;;1784570;78;21143;-84
2022/12/11 01:01:51;;;;;;;23.32;17.12;;;24.00;90.60;;;;;;1792616;78;21158;-85
2022/12/11 01:04:22;;;;;;;22.52;16.52;;;24.10;90.40;;;;;;1790125;79;21092;-85
2022/12/11 01:06:54;;;;;;;28.32;18.05;;;24.10;90.20;;;;;;1784502;79;21220;-84
2022/12/11 01:12:13;;;;;;;22.93;17.42;;;24.10;89.50;;;;;;1772944;80;21140;-85
2022/12/11 01:14:44;;;;;;;24.60;17.55;;;24.10;89.50;;;;;;1785565;79;21131;-84
2022/12/11 01:17:15;;;;;;;23.50;16.55;;;24.20;89.30;;;;;;1780727;80;21096;-84
2022/12/11 01:19:46;;;;;;;18.62;14.63;;;24.20;89.30;;;;;;1799224;79;21651;-84
2022/12/11 01:22:17;;;;;;;32.28;20.52;;;24.20;88.80;;;;;;1798857;78;21488;-84
2022/12/11 01:24:47;;;;;;;19.23;14.80;;;24.30;88.50;;;;;;1798146;78;21188;-84
2022/12/11 01:27:18;;;;;;;20.90;15.98;;;24.30;88.00;;;;;;1790979;78;21156;-84
2022/12/11 01:29:49;;;;;;;22.98;16.65;;;24.30;88.00;;;;;;1771527;79;21109;-85
2022/12/11 01:32:20;;;;;;;24.40;16.00;;;24.30;87.80;;;;;;1739373;82;21159;-84
2022/12/11 01:34:51;;;;;;;20.40;17.57;;;24.30;87.80;;;;;;1793102;79;21487;-85
2022/12/11 01:37:24;;;;;;;21.48;16.25;;;24.30;87.70;;;;;;1803808;78;21779;-85
2022/12/11 01:39:54;;;;;;;34.08;24.00;;;24.30;88.60;;;;;;1796503;79;21176;-86
2022/12/11 01:42:30;;;;;;;31.17;21.87;;;24.30;87.40;;;;;;1795324;78;21165;-85
2022/12/11 01:45:09;;;;;;;22.10;17.95;;;24.30;87.60;;;;;;1758515;79;21112;-84
2022/12/11 01:47:45;;;;;;;21.23;17.55;;;24.30;87.90;;;;;;1761824;81;21140;-85
2022/12/11 01:50:37;;;;;;;21.82;16.02;;;24.40;87.90;;;;;;1810952;78;21539;-86
2022/12/11 01:53:23;;;;;;;18.27;15.20;;;24.40;87.90;;;;;;1791012;79;21138;-86
2022/12/11 01:55:48;;;;;;;19.57;15.25;;;24.40;87.80;;;;;;1781529;79;21165;-86
2022/12/11 01:58:20;;;;;;;23.02;16.85;;;24.40;87.60;;;;;;1795092;79;21203;-87
2022/12/11 02:00:56;;;;;;;25.55;18.80;;;24.40;87.70;;;;;;1798021;78;21159;-85
2022/12/11 02:03:32;;;;;;;23.57;18.40;;;24.50;87.80;;;;;;1789585;79;21903;-84
2022/12/11 02:06:01;;;;;;;22.70;17.67;;;24.50;87.90;;;;;;1778845;80;21229;-85
2022/12/11 02:08:32;;;;;;;21.15;17.10;;;24.50;87.70;;;;;;1743926;81;21210;-86
2022/12/11 02:11:13;;;;;;;21.80;16.77;;;24.60;87.60;;;;;;1749167;81;22268;-85
2022/12/11 02:13:59;;;;;;;20.80;15.90;;;24.60;87.20;;;;;;1760213;79;21203;-86
2022/12/11 02:16:38;;;;;;;21.73;16.07;;;24.60;86.90;;;;;;1749497;81;21182;-85
2022/12/11 02:19:36;;;;;;;24.20;17.48;;;24.60;86.90;;;;;;1744370;79;21852;-86
2022/12/11 02:22:10;;;;;;;21.45;16.85;;;24.60;86.70;;;;;;1775343;78;21737;-87
2022/12/11 02:24:58;;;;;;;20.90;16.12;;;24.70;86.70;;;;;;1824150;78;21131;-86
2022/12/11 02:27:37;;;;;;;24.90;17.52;;;24.70;87.00;;;;;;1822734;77;21076;-85
2022/12/11 02:30:13;;;;;;;21.65;16.57;;;24.80;87.00;;;;;;1798136;77;21186;-86
2022/12/11 02:32:55;;;;;;;22.15;16.25;;;24.80;86.70;;;;;;1827487;77;21068;-86
2022/12/11 02:35:44;;;;;;;23.70;17.55;;;24.80;86.50;;;;;;1814287;78;21147;-84
2022/12/11 02:38:14;;;;;;;22.65;16.87;;;24.90;86.40;;;;;;1816121;78;21699;-70
2022/12/11 02:40:47;;;;;;;23.52;17.82;;;24.90;86.20;;;;;;1816110;78;21072;-70
2022/12/11 02:43:19;;;;;;;20.65;16.82;;;24.90;86.00;;;;;;1827242;78;21107;-71
2022/12/11 02:45:51;;;;;;;21.05;16.70;;;24.90;86.20;;;;;;1825606;77;21563;-70
2022/12/11 02:48:24;;;;;;;21.50;16.62;;;24.80;86.10;;;;;;1830426;78;22347;-70
2022/12/11 02:50:57;;;;;;;23.60;17.77;;;24.90;85.90;;;;;;1828206;78;21228;-70
2022/12/11 02:53:30;;;;;;;22.73;16.40;;;24.90;85.60;;;;;;1829678;78;21174;-70
2022/12/11 02:56:04;;;;;;;24.67;17.48;;;24.90;85.30;;;;;;1804514;78;21198;-71
2022/12/11 02:58:36;;;;;;;22.20;17.67;;;25.00;85.30;;;;;;1765455;80;21691;-70
2022/12/11 03:01:11;;;;;;;25.27;17.85;;;25.00;85.30;;;;;;1827997;78;21595;-70
2022/12/11 03:03:42;;;;;;;23.02;17.98;;;25.00;85.60;;;;;;1830833;78;21221;-71
2022/12/11 03:06:17;;;;;;;24.02;18.00;;;25.00;85.50;;;;;;1825416;77;21159;-70
2022/12/11 03:08:50;;;;;;;26.42;18.70;;;25.00;85.40;;;;;;1785211;79;21198;-70
2022/12/11 03:11:20;;;;;;;24.95;17.95;;;25.00;85.40;;;;;;1791760;79;21227;-70
2022/12/11 03:13:51;;;;;;;24.63;18.30;;;25.00;85.50;;;;;;1831549;78;21091;-70
2022/12/11 03:16:48;;;;;;;25.48;19.40;;;25.10;85.80;;;;;;1828711;78;21087;-70
2022/12/11 03:19:30;;;;;;;25.43;19.48;;;25.10;85.40;;;;;;1805363;78;21097;-70
2022/12/11 03:22:12;;;;;;;29.72;21.45;;;25.20;85.50;;;;;;1770111;80;21670;-69
2022/12/11 03:24:53;;;;;;;29.95;21.90;;;25.30;85.10;;;;;;1813214;78;21142;-69
2022/12/11 03:27:29;;;;;;;28.20;19.85;;;25.30;84.90;;;;;;1754822;82;21705;-69
2022/12/11 03:30:08;;;;;;;27.85;19.77;;;25.40;84.20;;;;;;1817691;77;21697;-69
2022/12/11 03:32:50;;;;;;;29.70;21.68;;;25.40;83.90;;;;;;1831847;78;21160;-69
2022/12/11 03:35:30;;;;;;;28.83;21.30;;;25.50;84.20;;;;;;1830623;78;21234;-70
2022/12/11 03:38:05;;;;;;;31.10;21.85;;;25.50;84.30;;;;;;1827130;77;21091;-69
2022/12/11 03:40:38;;;;;;;30.17;22.00;;;25.50;84.10;;;;;;1808320;78;21712;-71
2022/12/11 03:43:11;;;;;;;33.05;22.48;;;25.50;84.00;;;;;;1822684;78;21150;-71
2022/12/11 03:46:01;;;;;;;29.82;21.75;;;25.50;84.00;;;;;;1827531;77;21080;-70
2022/12/11 03:48:34;;;;;;;36.15;22.70;;;25.50;84.00;;;;;;1764780;79;21147;-70
2022/12/11 03:51:07;;;;;;;30.10;21.35;;;25.50;84.20;;;;;;1813786;77;21157;-70
2022/12/11 03:53:39;;;;;;;25.88;20.60;;;25.50;84.10;;;;;;1814392;77;21176;-70
2022/12/11 03:56:12;;;;;;;28.07;20.05;;;25.50;84.00;;;;;;1816672;77;21687;-71
2022/12/11 03:58:43;;;;;;;26.05;18.45;;;25.60;84.10;;;;;;1741316;80;21154;-71
2022/12/11 04:01:14;;;;;;;25.40;19.40;;;25.60;84.50;;;;;;1817741;77;21724;-71
2022/12/11 04:03:45;;;;;;;28.07;19.55;;;25.60;83.70;;;;;;1812475;78;21153;-70
2022/12/11 04:06:15;;;;;;;25.05;19.32;;;25.70;83.70;;;;;;1819159;77;21221;-71
2022/12/11 04:08:46;;;;;;;30.68;18.75;;;25.70;83.40;;;;;;1808805;78;21090;-71
2022/12/11 04:11:35;;;;;;;23.07;19.02;;;25.80;83.20;;;;;;1818332;77;21222;-71
2022/12/11 04:16:44;;;;;;;23.47;17.57;;;25.90;83.40;;;;;;1790802;77;21881;-70
2022/12/11 04:24:54;;;;;;;23.73;18.85;;;26.20;82.30;;;;;;1821995;77;21184;-70
2022/12/11 04:30:19;;;;;;;26.73;18.95;;;26.40;82.20;;;;;;1824512;77;21141;-71
2022/12/11 04:32:51;;;;;;;22.93;18.10;;;26.50;82.10;;;;;;1814426;77;21199;-72
2022/12/11 04:35:22;;;;;;;27.20;19.30;;;26.60;82.00;;;;;;1824464;77;21498;-71
2022/12/11 04:37:54;;;;;;;23.42;18.27;;;26.60;81.90;;;;;;1808201;77;21137;-71
2022/12/11 04:40:27;;;;;;;23.50;18.73;;;26.60;82.00;;;;;;1800962;78;21164;-70
2022/12/11 04:42:58;;;;;;;21.65;17.57;;;26.70;81.70;;;;;;1805115;77;21167;-71
2022/12/11 04:45:31;;;;;;;24.35;18.73;;;26.70;81.70;;;;;;1820875;77;21743;-72
2022/12/11 04:48:02;;;;;;;25.23;18.87;;;26.80;81.70;;;;;;1824327;76;21186;-71
2022/12/11 04:50:35;;;;;;;26.55;18.42;;;26.80;82.30;;;;;;1842502;76;21108;-69
2022/12/11 04:53:06;;;;;;;21.75;17.00;;;27.00;81.20;;;;;;1841318;77;21144;-70
2022/12/11 04:55:38;;;;;;;23.15;18.62;;;27.20;80.10;;;;;;1836858;77;21552;-70
2022/12/11 04:58:09;;;;;;;23.47;16.75;;;27.30;79.20;;;;;;1826584;77;21151;-71
2022/12/11 05:00:41;;;;;;;23.32;18.05;;;27.50;78.60;;;;;;1839049;77;21179;-71
2022/12/11 05:03:13;;;;;;;23.92;17.60;;;27.60;79.30;;;;;;1854652;77;21556;-71
2022/12/11 05:05:49;;;;;;;23.50;17.67;;;27.90;78.60;;;;;;1846755;77;21164;-70
2022/12/11 05:08:25;;;;;;;22.73;18.27;;;28.00;77.40;;;;;;1853470;77;21628;-70
2022/12/11 05:10:58;;;;;;;22.93;17.45;;;28.10;77.20;;;;;;1771713;79;21225;-70
2022/12/11 05:13:29;;;;;;;24.43;17.73;;;28.10;77.30;;;;;;1785660;79;21245;-71
2022/12/11 05:16:02;;;;;;;22.25;17.42;;;28.10;76.80;;;;;;1833441;77;21136;-70
2022/12/11 05:18:33;;;;;;;21.55;16.15;;;28.00;77.30;;;;;;1846819;76;21226;-70
2022/12/11 05:21:12;;;;;;;25.75;17.40;;;28.00;76.70;;;;;;1835295;76;21680;-70
2022/12/11 05:23:43;;;;;;;20.70;16.60;;;28.10;77.60;;;;;;1843762;77;21072;-71
2022/12/11 05:26:16;;;;;;;23.35;17.50;;;28.20;77.50;;;;;;1824618;78;21165;-71
2022/12/11 05:28:49;;;;;;;21.30;16.40;;;28.40;75.80;;;;;;1809955;78;21242;-71
2022/12/11 05:31:22;;;;;;;21.52;15.88;;;28.50;75.90;;;;;;1838677;76;21139;-71
2022/12/11 05:33:54;;;;;;;19.25;15.08;;;28.50;74.60;;;;;;1833490;77;21682;-70
2022/12/11 05:36:27;;;;;;;22.10;16.02;;;28.60;73.60;;;;;;1846354;77;21096;-70
2022/12/11 05:38:59;;;;;;;19.87;15.05;;;28.60;73.70;;;;;;1842487;76;21152;-71
2022/12/11 05:41:31;;;;;;;18.55;13.58;;;28.60;74.30;;;;;;1834728;77;21875;-70
2022/12/11 05:44:02;;;;;;;20.95;16.12;;;28.60;72.40;;;;;;1856637;77;21187;-71
2022/12/11 05:46:32;;;;;;;17.77;13.48;;;28.50;73.70;;;;;;1852582;76;21246;-71
2022/12/11 05:49:03;;;;;;;16.82;13.38;;;28.50;71.90;;;;;;1838827;77;21077;-70
2022/12/11 05:51:34;;;;;;;38.50;15.08;;;28.40;72.30;;;;;;1845187;77;21151;-71
2022/12/11 05:54:05;;;;;;;16.05;13.32;;;28.40;73.00;;;;;;1855735;77;21168;-71
2022/12/11 05:56:38;;;;;;;17.82;13.90;;;28.40;72.50;;;;;;1854580;77;21124;-71
2022/12/11 05:59:09;;;;;;;20.02;14.10;;;28.40;74.80;;;;;;1827783;77;21218;-72
2022/12/11 06:01:42;;;;;;;17.15;13.75;;;28.50;73.40;;;;;;1857310;76;21178;-71
2022/12/11 06:04:14;;;;;;;17.75;13.50;;;28.60;73.70;;;;;;1858545;76;21181;-71
2022/12/11 06:06:45;;;;;;;17.48;13.38;;;28.80;72.60;;;;;;1815275;77;21155;-71
2022/12/11 06:09:17;;;;;;;18.35;14.00;;;28.90;71.40;;;;;;1821346;78;21527;-71
2022/12/11 06:11:48;;;;;;;16.87;13.05;;;29.00;71.20;;;;;;1823805;78;21195;-71
2022/12/11 06:14:19;;;;;;;15.18;12.63;;;29.10;70.50;;;;;;1854736;76;21253;-72
2022/12/11 06:16:50;;;;;;;17.75;12.13;;;29.10;69.70;;;;;;1861305;76;21166;-72
2022/12/11 06:19:21;;;;;;;18.00;12.13;;;29.20;69.70;;;;;;1859166;76;21193;-72
2022/12/11 06:21:52;;;;;;;16.20;12.95;;;29.30;70.10;;;;;;1856982;76;21624;-72
2022/12/11 06:24:23;;;;;;;14.65;11.95;;;29.40;69.30;;;;;;1838058;77;21164;-71
2022/12/11 06:26:54;;;;;;;16.07;12.00;;;29.50;69.00;;;;;;1848597;76;21146;-71
2022/12/11 06:29:25;;;;;;;17.35;12.55;;;29.60;68.00;;;;;;1845655;76;21080;-71
2022/12/11 06:31:59;;;;;;;15.48;12.80;;;29.70;67.50;;;;;;1843412;77;21575;-71
2022/12/11 06:34:30;;;;;;;18.07;13.48;;;29.70;69.50;;;;;;1848720;76;21067;-71
2022/12/11 06:37:01;;;;;;;17.92;13.20;;;29.70;68.40;;;;;;1857608;76;21164;-72
2022/12/11 06:39:32;;;;;;;19.10;13.83;;;29.70;67.80;;;;;;1854656;76;21154;-71
2022/12/11 06:42:02;;;;;;;17.12;14.55;;;29.80;67.80;;;;;;1851461;76;21631;-72
2022/12/11 06:44:33;;;;;;;16.10;12.98;;;29.70;67.40;;;;;;1854791;76;21077;-71
2022/12/11 06:47:05;;;;;;;16.97;14.13;;;29.70;68.50;;;;;;1850667;77;21511;-71
2022/12/11 06:49:36;;;;;;;19.10;13.88;;;29.70;68.10;;;;;;1856727;77;21084;-71
2022/12/11 06:52:08;;;;;;;17.65;13.18;;;29.70;68.60;;;;;;1858224;76;21256;-71
2022/12/11 06:54:42;;;;;;;16.85;13.15;;;29.70;69.20;;;;;;1855977;76;21197;-71
2022/12/11 06:57:13;;;;;;;18.45;13.65;;;29.70;69.30;;;;;;1829937;77;21174;-71
2022/12/11 06:59:46;;;;;;;16.32;14.03;;;29.80;69.50;;;;;;1780605;79;21253;-71
2022/12/11 07:02:18;;;;;;;19.27;13.30;;;29.80;68.40;;;;;;1814985;77;21207;-72
2022/12/11 07:04:49;;;;;;;16.82;13.35;;;29.80;67.70;;;;;;1784313;79;21107;-71
2022/12/11 07:07:23;;;;;;;17.52;12.68;;;29.80;67.40;;;;;;1837482;77;21144;-70
2022/12/11 07:09:54;;;;;;;19.75;13.95;;;29.70;67.40;;;;;;1830589;76;21132;-71
2022/12/11 07:12:25;;;;;;;17.98;12.68;;;29.70;67.90;;;;;;1830156;77;21147;-71
2022/12/11 07:14:56;;;;;;;16.25;13.13;;;29.80;68.30;;;;;;1774196;79;21264;-72
2022/12/11 07:17:28;;;;;;;17.37;13.58;;;29.80;69.00;;;;;;1812390;77;21206;-71
2022/12/11 07:19:59;;;;;;;17.37;13.60;;;29.80;67.80;;;;;;1838428;77;21140;-71
2022/12/11 07:22:30;;;;;;;17.30;13.22;;;29.80;67.80;;;;;;1837874;77;21212;-71
2022/12/11 07:25:01;;;;;;;16.45;14.15;;;29.80;67.50;;;;;;1846536;76;21103;-70
2022/12/11 07:27:32;;;;;;;16.27;13.18;;;29.80;67.50;;;;;;1865850;76;21095;-71
2022/12/11 07:30:06;;;;;;;19.50;12.98;;;29.70;67.60;;;;;;1851701;76;21166;-72
2022/12/11 07:32:38;;;;;;;25.08;12.93;;;29.70;67.80;;;;;;1857241;76;21182;-72
2022/12/11 07:35:09;;;;;;;15.95;13.18;;;29.70;67.90;;;;;;1843032;77;21218;-71
2022/12/11 07:37:59;;;;;;;21.62;13.40;;;29.70;67.90;;;;;;1842822;77;21142;-71
2022/12/11 07:40:34;;;;;;;16.52;12.95;;;29.70;67.40;;;;;;1811212;78;21972;-70
2022/12/11 07:43:08;;;;;;;15.68;11.63;;;29.70;67.90;;;;;;1839133;77;21201;-72
2022/12/11 07:45:39;;;;;;;17.12;12.95;;;29.70;67.60;;;;;;1846218;76;21136;-72
2022/12/11 07:48:11;;;;;;;15.25;12.45;;;29.70;67.00;;;;;;1837832;77;21137;-72
2022/12/11 07:50:42;;;;;;;16.23;12.43;;;29.60;66.70;;;;;;1840859;76;21144;-71
2022/12/11 07:53:14;;;;;;;14.55;11.97;;;29.50;67.50;;;;;;1833429;78;21232;-71
2022/12/11 07:55:45;;;;;;;13.88;11.70;;;29.50;67.60;;;;;;1832207;78;21116;-70
2022/12/11 07:58:16;;;;;;;16.32;11.80;;;29.40;67.90;;;;;;1861836;76;21060;-70
2022/12/11 08:00:48;;;;;;;16.70;11.78;;;29.30;67.60;;;;;;1835861;78;21223;-71
2022/12/11 08:03:19;;;;;;;14.35;12.15;;;29.20;68.00;;;;;;1835905;78;21218;-70
2022/12/11 08:05:52;;;;;;;14.28;12.20;;;29.20;68.30;;;;;;1835864;78;21176;-71
2022/12/11 08:08:23;;;;;;;14.90;11.68;;;29.10;68.00;;;;;;1834693;77;21207;-70
2022/12/11 08:10:55;;;;;;;14.47;11.93;;;29.20;68.70;;;;;;1834353;77;21542;-71
2022/12/11 08:13:27;;;;;;;14.18;11.93;;;29.20;68.40;;;;;;1833594;76;21129;-70
2022/12/11 08:15:58;;;;;;;16.10;12.20;;;29.10;68.40;;;;;;1841054;78;21223;-71
2022/12/11 08:18:29;;;;;;;15.35;12.07;;;29.20;67.90;;;;;;1830263;77;21189;-71
2022/12/11 08:21:01;;;;;;;16.45;11.90;;;29.30;69.00;;;;;;1831136;76;21096;-70
2022/12/11 08:23:33;;;;;;;16.95;11.28;;;29.40;68.90;;;;;;1852337;76;21189;-71
2022/12/11 08:26:06;;;;;;;16.23;11.73;;;29.40;67.80;;;;;;1863598;76;21124;-71
2022/12/11 08:28:44;;;;;;;20.05;12.18;;;29.40;67.40;;;;;;1838170;76;21203;-71
2022/12/11 08:31:19;;;;;;;16.52;12.40;;;29.50;67.00;;;;;;1796277;79;21572;-70
2022/12/11 08:33:51;;;;;;;15.95;11.65;;;29.50;66.60;;;;;;1748480;81;21170;-72
2022/12/11 08:36:27;;;;;;;16.17;11.80;;;29.50;67.00;;;;;;1778610;78;21116;-70
2022/12/11 08:38:56;;;;;;;18.60;11.57;;;29.60;66.90;;;;;;1766737;79;21599;-71
2022/12/11 08:41:29;;;;;;;18.60;12.07;;;29.60;67.70;;;;;;1801193;78;21204;-85
2022/12/11 08:44:01;;;;;;;13.15;10.88;;;29.60;66.50;;;;;;1838853;77;21239;-84
2022/12/11 08:46:34;;;;;;;16.90;12.07;;;29.50;66.70;;;;;;1769836;80;21120;-85
2022/12/11 08:49:05;;;;;;;17.42;10.93;;;29.50;66.80;;;;;;1802480;79;21108;-86
2022/12/11 08:51:57;;;;;;;14.80;11.40;;;29.50;66.90;;;;;;1764410;81;21227;-84
2022/12/11 08:54:28;;;;;;;15.03;11.73;;;29.50;67.20;;;;;;1834215;78;21201;-85
2022/12/11 08:56:59;;;;;;;15.60;11.65;;;29.40;67.60;;;;;;1835563;78;21141;-86
2022/12/11 08:59:29;;;;;;;14.70;11.75;;;29.40;68.10;;;;;;1836749;78;21163;-85
2022/12/11 09:02:00;;;;;;;14.60;10.90;;;29.40;67.70;;;;;;1846889;76;21193;-84
2022/12/11 09:04:33;;;;;;;15.65;11.20;;;29.30;67.60;;;;;;1835704;76;21160;-85
2022/12/11 09:07:06;;;;;;;14.25;11.03;;;29.30;67.20;;;;;;1843025;77;21074;-84
2022/12/11 09:09:39;;;;;;;18.25;13.48;;;29.30;67.50;;;;;;1849313;77;21540;-83
2022/12/11 09:12:10;;;;;;;20.30;13.75;;;29.30;67.60;;;;;;1831733;77;21125;-84
2022/12/11 09:14:41;;;;;;;19.35;14.78;;;29.20;67.40;;;;;;1842702;77;21233;-85
2022/12/11 09:17:12;;;;;;;16.90;12.63;;;29.20;67.40;;;;;;1838690;77;21128;-85
2022/12/11 09:19:43;;;;;;;16.30;12.95;;;29.10;67.80;;;;;;1829218;77;21173;-85
2022/12/11 09:22:13;;;;;;;17.32;11.93;;;29.10;68.00;;;;;;1827095;78;21211;-84
2022/12/11 09:24:45;;;;;;;15.58;11.45;;;29.10;68.10;;;;;;1837442;78;21177;-84
2022/12/11 09:27:16;;;;;;;17.67;12.03;;;29.00;68.20;;;;;;1836347;77;21270;-85
2022/12/11 09:29:47;;;;;;;16.93;11.83;;;29.00;68.50;;;;;;1820116;76;21141;-85
2022/12/11 09:32:18;;;;;;;16.67;12.03;;;28.90;68.60;;;;;;1838391;76;21082;-84
2022/12/11 09:34:52;;;;;;;17.90;12.65;;;28.90;68.70;;;;;;1812275;78;21160;-84
2022/12/11 09:37:23;;;;;;;15.72;11.30;;;28.90;68.90;;;;;;1803295;78;21250;-84
2022/12/11 09:39:54;;;;;;;15.70;12.43;;;28.90;68.70;;;;;;1837069;77;21176;-85
2022/12/11 09:42:33;;;;;;;17.52;11.63;;;28.90;68.90;;;;;;1851197;77;21178;-84
2022/12/11 09:45:06;;;;;;;15.03;11.10;;;28.90;68.80;;;;;;1834660;77;21147;-85
2022/12/11 09:47:40;;;;;;;15.32;12.10;;;28.90;68.70;;;;;;1836165;78;21715;-83
2022/12/11 09:50:15;;;;;;;13.90;11.78;;;28.90;68.80;;;;;;1821414;78;21180;-84
2022/12/11 09:53:08;;;;;;;14.40;11.48;;;28.90;68.90;;;;;;1822900;77;21589;-83
2022/12/11 09:55:53;;;;;;;14.18;11.08;;;28.90;68.60;;;;;;1812493;77;21137;-85
2022/12/11 09:58:57;;;;;;;19.48;12.25;;;28.90;68.90;;;;;;1817305;78;21183;-84
2022/12/11 10:01:53;;;;;;;16.35;11.50;;;28.80;69.10;;;;;;1860791;76;21107;-83
2022/12/11 10:04:38;;;;;;;16.52;11.70;;;28.80;69.40;;;;;;1774759;79;21215;-85
2022/12/11 10:07:18;;;;;;;17.02;11.93;;;28.80;69.30;;;;;;1756655;80;21226;-84
2022/12/11 10:10:06;;;;;;;13.60;11.00;;;28.80;69.50;;;;;;1818759;77;21157;-86
2022/12/11 10:12:48;;;;;;;14.38;11.18;;;28.70;69.40;;;;;;1835673;77;21097;-85
2022/12/11 10:15:30;;;;;;;14.28;11.63;;;28.70;69.50;;;;;;1824814;77;21157;-85
2022/12/11 10:18:03;;;;;;;15.95;11.95;;;28.70;70.00;;;;;;1863070;77;21597;-85
2022/12/11 10:20:39;;;;;;;16.80;12.10;;;28.70;69.60;;;;;;1854926;77;21561;-84
2022/12/11 10:23:18;;;;;;;13.18;11.03;;;28.60;69.70;;;;;;1852619;77;21541;-82
2022/12/11 10:25:51;;;;;;;17.48;12.15;;;28.60;69.90;;;;;;1834437;77;21141;-85
2022/12/11 10:28:23;;;;;;;13.80;11.68;;;28.50;69.90;;;;;;1847196;76;21199;-84
2022/12/11 10:31:21;;;;;;;18.73;12.10;;;28.50;69.90;;;;;;1852502;76;21113;-85
2022/12/11 10:34:01;;;;;;;19.70;12.68;;;28.50;70.10;;;;;;1788913;79;21672;-85
2022/12/11 10:36:37;;;;;;;20.80;13.22;;;28.40;70.20;;;;;;1825376;77;21196;-84
2022/12/11 10:39:15;;;;;;;18.30;12.93;;;28.50;70.60;;;;;;1845764;77;21172;-84
2022/12/11 10:41:49;;;;;;;18.50;13.00;;;28.40;70.40;;;;;;1825242;76;21221;-84
2022/12/11 10:44:24;;;;;;;19.15;12.65;;;28.40;70.50;;;;;;1854653;76;21730;-83
2022/12/11 10:47:08;;;;;;;18.30;13.20;;;28.40;70.70;;;;;;1862347;76;21677;-85
2022/12/11 10:49:44;;;;;;;17.25;12.82;;;28.40;70.90;;;;;;1830600;76;21225;-84
2022/12/11 10:52:25;;;;;;;17.80;13.15;;;28.30;71.20;;;;;;1826233;77;21109;-84
2022/12/11 10:55:05;;;;;;;16.27;12.23;;;28.30;71.90;;;;;;1841610;76;21663;-84
2022/12/11 10:57:38;;;;;;;25.97;15.48;;;28.30;72.00;;;;;;1844521;77;21082;-84
2022/12/11 11:00:28;;;;;;;22.45;15.58;;;28.30;72.40;;;;;;1838285;77;21076;-84
2022/12/11 11:03:01;;;;;;;22.13;16.60;;;28.30;72.70;;;;;;1799599;78;21601;-84
2022/12/11 11:05:36;;;;;;;22.70;15.18;;;28.20;73.50;;;;;;1824089;77;21721;-84
2022/12/11 11:08:24;;;;;;;21.40;16.17;;;28.20;73.20;;;;;;1863413;77;21160;-85
2022/12/11 11:10:58;;;;;;;23.38;16.37;;;28.20;73.50;;;;;;1834812;76;21133;-84
2022/12/11 11:13:31;;;;;;;24.12;16.57;;;28.10;73.90;;;;;;1849847;77;21243;-84
2022/12/11 11:16:10;;;;;;;25.55;16.80;;;28.10;74.20;;;;;;1835692;77;21161;-85
2022/12/11 11:18:39;;;;;;;26.57;18.40;;;28.10;74.60;;;;;;1846343;77;21601;-84
2022/12/11 11:21:22;;;;;;;26.75;18.75;;;28.10;74.80;;;;;;1836182;76;21198;-84
2022/12/11 11:23:56;;;;;;;27.40;20.25;;;28.00;74.60;;;;;;1836473;76;21219;-84
2022/12/11 11:26:28;;;;;;;26.87;18.15;;;28.00;74.80;;;;;;1812066;77;21590;-84
2022/12/11 11:29:02;;;;;;;30.90;20.32;;;28.00;74.90;;;;;;1827730;76;21757;-84
2022/12/11 11:31:35;;;;;;;26.75;19.23;;;28.00;75.10;;;;;;1854655;77;21148;-85
2022/12/11 11:34:09;;;;;;;26.33;18.65;;;27.90;75.20;;;;;;1852480;77;21642;-83
2022/12/11 11:36:41;;;;;;;23.92;18.00;;;27.90;75.30;;;;;;1863964;77;21105;-84
2022/12/11 11:39:29;;;;;;;30.48;18.60;;;27.90;75.40;;;;;;1846419;76;21466;-84
2022/12/11 11:42:08;;;;;;;29.72;18.15;;;27.90;75.50;;;;;;1852204;76;21131;-84
2022/12/11 11:44:44;;;;;;;23.75;17.85;;;27.90;75.40;;;;;;1882212;76;21089;-85
2022/12/11 11:47:24;;;;;;;25.47;19.33;;;27.80;75.60;;;;;;1839822;76;21186;-83
2022/12/11 11:50:09;;;;;;;22.80;18.02;;;27.80;76.20;;;;;;1875327;73;21124;-85
2022/12/11 11:52:49;;;;;;;22.27;18.32;;;27.80;76.20;;;;;;1866832;76;21644;-85
2022/12/11 11:55:22;;;;;;;22.55;17.62;;;27.80;77.10;;;;;;1841343;77;21126;-85
2022/12/11 11:58:09;;;;;;;24.82;17.05;;;27.80;76.10;;;;;;1838448;76;21099;-85
2022/12/11 12:00:43;;;;;;;21.70;16.35;;;27.80;75.90;;;;;;1865596;76;21529;-84
2022/12/11 12:03:16;;;;;;;21.07;15.75;;;27.80;75.80;;;;;;1850518;76;21097;-85
2022/12/11 12:05:56;;;;;;;21.70;16.07;;;27.80;75.70;;;;;;1858678;75;21186;-83
2022/12/11 12:08:37;;;;;;;29.12;17.90;;;27.70;76.00;;;;;;1818325;77;21142;-84
2022/12/11 12:11:17;;;;;;;20.12;16.15;;;27.70;76.50;;;;;;1874445;75;21228;-84
2022/12/11 12:13:55;;;;;;;27.37;18.32;;;27.60;76.50;;;;;;1857629;76;21174;-84
2022/12/11 12:16:38;;;;;;;32.47;19.83;;;27.70;76.70;;;;;;1860547;75;21159;-84
2022/12/11 12:19:16;;;;;;;23.32;18.70;;;27.60;76.70;;;;;;1840360;77;21363;-84
2022/12/11 12:21:49;;;;;;;28.12;17.95;;;27.60;76.60;;;;;;1843923;75;21675;-83
2022/12/11 12:24:28;;;;;;;23.95;17.20;;;27.60;76.70;;;;;;1849272;76;21081;-83
2022/12/11 12:27:14;;;;;;;20.62;16.02;;;27.60;76.90;;;;;;1822256;77;21291;-84
2022/12/11 12:29:48;;;;;;;26.37;17.25;;;27.60;77.00;;;;;;1857485;76;21168;-83
2022/12/11 12:32:30;;;;;;;28.05;19.23;;;27.50;76.90;;;;;;1871178;76;21160;-82
2022/12/11 12:35:03;;;;;;;29.50;20.00;;;27.60;76.90;;;;;;1872756;76;21189;-84
2022/12/11 12:37:51;;;;;;;26.93;19.27;;;27.50;76.90;;;;;;1869018;76;21588;-82
2022/12/11 12:40:41;;;;;;;31.05;20.15;;;27.50;76.90;;;;;;1857724;75;21244;-84
2022/12/11 12:43:31;;;;;;;33.15;20.68;;;27.50;77.20;;;;;;1819912;77;21155;-84
2022/12/11 12:46:23;;;;;;;28.75;21.57;;;27.50;77.70;;;;;;1827500;78;21236;-84
2022/12/11 12:48:57;;;;;;;36.20;23.75;;;27.50;78.30;;;;;;1826243;77;21182;-81
2022/12/11 12:51:36;;;;;;;37.40;22.93;;;27.50;79.20;;;;;;1801467;78;21641;-84
2022/12/11 12:54:12;;;;;;;37.73;24.02;;;27.40;79.70;;;;;;1820660;77;21634;-84
2022/12/11 12:56:44;;;;;;;42.88;27.50;;;27.40;80.80;;;;;;1803583;78;21099;-84
2022/12/11 12:59:22;;;;;;;41.88;27.95;;;27.40;81.50;;;;;;1825135;78;21230;-82
2022/12/11 13:01:57;;;;;;;55.08;31.23;;;27.30;82.00;;;;;;1832664;78;21555;-83
2022/12/11 13:04:42;;;;;;;49.95;33.05;;;27.30;81.80;;;;;;1835079;77;21158;-83
2022/12/11 13:07:19;;;;;;;44.67;30.77;;;27.20;81.70;;;;;;1819084;78;21216;-84
2022/12/11 13:10:05;;;;;;;49.30;31.68;;;27.20;81.80;;;;;;1818342;77;21143;-82
2022/12/11 13:12:44;;;;;;;42.35;30.92;;;27.20;81.70;;;;;;1820188;78;21217;-83
2022/12/11 13:15:45;;;;;;;45.50;31.20;;;27.10;82.10;;;;;;1827242;78;21174;-83
2022/12/11 13:18:34;;;;;;;45.17;31.48;;;27.10;82.40;;;;;;1797594;78;21143;-83
2022/12/11 13:21:30;;;;;;;45.30;31.30;;;27.00;82.30;;;;;;1821437;77;21197;-84